Nbp Island — V2FH3 — position and weather

sailwx.info

Track history (hours):
 
Tides and Currents Weather Stations Pressure Air Temp Water Temp Dewpoint Dewpoint Depression Visibility Wind Speed Wind Dir Waves Ship Positions

Nbp Island

Last reported at 2015-Mar-02 03:33 UTC. Time now 2015-Mar-02 03:41 UTC.
Position N 54°36' E 011°05'.

Length 107 m; draft 8.2 m.

Type: Cargo ship. MMSI: 305674000.

Date/timePositionNaut miles runAvg speedWind from/ knotsBaromVisibWave heightAir tempDewpointWater temp
2015-Mar-02 03:33N 54°36' E 011°05'1010.1
2015-Mar-02 02:33N 54°33' E 011°22'10 9.9
2015-Mar-02 01:33N 54°29' E 011°37'9 9.3
2015-Mar-02 00:33N 54°26' E 011°53'10 9.7
2015-Mar-01 23:33N 54°27' E 012°09'10 9.2
2015-Mar-01 22:28N 54°37' E 012°15'8 9.3
2015-Mar-01 21:33N 54°42' E 012°27'9 9.2
2015-Mar-01 20:32N 54°47' E 012°41'9 8.7
2015-Mar-01 19:33N 54°47' E 012°56'10 9.5
2015-Mar-01 18:33N 54°47' E 013°12'10 9.8
2015-Mar-01 17:33N 54°47' E 013°29'12 9.5
2015-Mar-01 16:18N 54°44' E 013°49'7 9.6
2015-Mar-01 15:33N 54°42' E 014°01'1410.0
2015-Mar-01 14:12N 54°38' E 014°24'8 9.2
2015-Mar-01 13:18N 54°39' E 014°38'18 8.8
2015-Mar-01 11:18N 54°42' E 015°08'94 9.6
2015-Mar-01 01:32N 54°56' E 017°49'10 9.7
2015-Mar-01 00:33N 54°57' E 018°06'10 9.6
2015-Feb-28 23:33N 54°58' E 018°22'10 9.7
2015-Feb-28 22:33N 54°56' E 018°39'20 9.8
2015-Feb-28 20:30N 54°50' E 019°12'9 9.7
2015-Feb-28 19:33N 54°47' E 019°27'19 8.5
2015-Feb-28 17:22N 54°38' E 019°55'3 0.3
2015-Feb-28 07:31N 54°39' E 019°51'9 9.0
2015-Feb-28 06:34N 54°44' E 019°38'4 4.0
2015-Feb-28 05:33N 54°47' E 019°34'9 9.1
2015-Feb-28 04:33N 54°56' E 019°33'  
2015-Feb-22 07:25N 55°39' E 015°27'1011.3
2015-Feb-22 06:33N 55°34' E 015°13'1111.2
2015-Feb-22 05:33N 55°28' E 014°56'1111.0
2015-Feb-22 04:34N 55°23' E 014°39'1110.7
2015-Feb-22 03:33N 55°14' E 014°27'1110.6
2015-Feb-22 02:33N 55°06' E 014°16'1110.6
2015-Feb-22 01:33N 54°59' E 014°01'1111.1
2015-Feb-22 00:33N 54°56' E 013°43'1111.0
2015-Feb-21 23:33N 54°52' E 013°25'1111.1
2015-Feb-21 22:33N 54°48' E 013°06'1211.7
2015-Feb-21 21:33N 54°45' E 012°47'1211.5
2015-Feb-21 20:33N 54°38' E 012°31'1211.7
2015-Feb-21 19:33N 54°30' E 012°16'1010.4
2015-Feb-21 18:33N 54°25' E 012°01'1211.5
2015-Feb-21 17:33N 54°26' E 011°41'1212.1
2015-Feb-21 16:33N 54°31' E 011°22'1512.0
2015-Feb-21 15:18N 54°34' E 010°57'911.7
2015-Feb-21 14:33N 54°34' E 010°42'1111.1
2015-Feb-21 13:33N 54°31' E 010°24'10 9.8
2015-Feb-21 12:33N 54°23' E 010°12'3 2.8
2015-Feb-21 11:33N 54°22' E 010°08'5 4.7
2015-Feb-21 10:33N 54°21' E 010°00'7 7.0
2015-Feb-21 09:33N 54°22' E 009°48'8 8.3
2015-Feb-21 08:33N 54°16' E 009°38'8 7.8
2015-Feb-21 07:33N 54°11' E 009°28'7 7.5
2015-Feb-21 06:33N 54°05' E 009°19'4 3.6
2015-Feb-21 05:33N 54°02' E 009°18'7 7.4
2015-Feb-21 04:33N 53°55' E 009°12'1 0.9
2015-Feb-21 03:31N 53°55' E 009°11'0 0.0
2015-Feb-21 02:31N 53°55' E 009°11'1 0.7
2015-Feb-21 01:33N 53°54' E 009°10'1 1.2
2015-Feb-21 00:34N 53°54' E 009°08'10 9.5
2015-Feb-20 23:33N 53°50' E 008°53'1313.1
2015-Feb-20 22:33N 53°58' E 008°35'1413.7
2015-Feb-20 21:33N 53°59' E 008°12'1211.6
2015-Feb-20 20:33N 53°53' E 007°55'9 9.4
2015-Feb-20 19:33N 53°48' E 008°08'1313.1
2015-Feb-20 18:33N 53°39' E 008°25'9 8.8
2015-Feb-20 17:31N 53°32' E 008°35'1 0.8
2015-Feb-20 16:32N 53°31' E 008°35'0 0.0
2015-Feb-20 15:32N 53°31' E 008°35'0 0.0
2015-Feb-20 14:32N 53°31' E 008°35'0 0.0
2015-Feb-20 13:32N 53°31' E 008°35'0 0.0
2015-Feb-20 12:32N 53°31' E 008°35'0 0.0
2015-Feb-20 11:32N 53°31' E 008°35'0 0.0
2015-Feb-20 10:32N 53°31' E 008°35'0 0.0
2015-Feb-20 09:32N 53°31' E 008°35'0 0.0
2015-Feb-20 08:32N 53°31' E 008°35'0 0.0
2015-Feb-20 07:32N 53°31' E 008°35'0 0.0
2015-Feb-20 06:32N 53°31' E 008°35'0 0.0
2015-Feb-20 05:32N 53°31' E 008°35'0 0.0
2015-Feb-20 04:32N 53°31' E 008°35'  
Track history (hours):
 
Tides and Currents Weather Stations Pressure Air Temp Water Temp Dewpoint Dewpoint Depression Visibility Wind Speed Wind Dir Waves Ship Positions

Nbp Island

Last reported at 2015-Mar-02 03:33 UTC. Time now 2015-Mar-02 03:41 UTC.
Position N 54°36' E 011°05'.

Length 107 m; draft 8.2 m.

Type: Cargo ship. MMSI: 305674000.

Date/timePositionNaut miles runAvg speedWind from/ knotsBaromVisibWave heightAir tempDewpointWater temp
2015-Mar-02 03:33N 54°36' E 011°05'1010.1
2015-Mar-02 02:33N 54°33' E 011°22'10 9.9
2015-Mar-02 01:33N 54°29' E 011°37'9 9.3
2015-Mar-02 00:33N 54°26' E 011°53'10 9.7
2015-Mar-01 23:33N 54°27' E 012°09'10 9.2
2015-Mar-01 22:28N 54°37' E 012°15'8 9.3
2015-Mar-01 21:33N 54°42' E 012°27'9 9.2
2015-Mar-01 20:32N 54°47' E 012°41'9 8.7
2015-Mar-01 19:33N 54°47' E 012°56'10 9.5
2015-Mar-01 18:33N 54°47' E 013°12'10 9.8
2015-Mar-01 17:33N 54°47' E 013°29'12 9.5
2015-Mar-01 16:18N 54°44' E 013°49'7 9.6
2015-Mar-01 15:33N 54°42' E 014°01'1410.0
2015-Mar-01 14:12N 54°38' E 014°24'8 9.2
2015-Mar-01 13:18N 54°39' E 014°38'18 8.8
2015-Mar-01 11:18N 54°42' E 015°08'94 9.6
2015-Mar-01 01:32N 54°56' E 017°49'10 9.7
2015-Mar-01 00:33N 54°57' E 018°06'10 9.6
2015-Feb-28 23:33N 54°58' E 018°22'10 9.7
2015-Feb-28 22:33N 54°56' E 018°39'20 9.8
2015-Feb-28 20:30N 54°50' E 019°12'9 9.7
2015-Feb-28 19:33N 54°47' E 019°27'19 8.5
2015-Feb-28 17:22N 54°38' E 019°55'3 0.3
2015-Feb-28 07:31N 54°39' E 019°51'9 9.0
2015-Feb-28 06:34N 54°44' E 019°38'4 4.0
2015-Feb-28 05:33N 54°47' E 019°34'9 9.1
2015-Feb-28 04:33N 54°56' E 019°33'  
2015-Feb-22 07:25N 55°39' E 015°27'1011.3
2015-Feb-22 06:33N 55°34' E 015°13'1111.2
2015-Feb-22 05:33N 55°28' E 014°56'1111.0
2015-Feb-22 04:34N 55°23' E 014°39'1110.7
2015-Feb-22 03:33N 55°14' E 014°27'1110.6
2015-Feb-22 02:33N 55°06' E 014°16'1110.6
2015-Feb-22 01:33N 54°59' E 014°01'1111.1
2015-Feb-22 00:33N 54°56' E 013°43'1111.0
2015-Feb-21 23:33N 54°52' E 013°25'1111.1
2015-Feb-21 22:33N 54°48' E 013°06'1211.7
2015-Feb-21 21:33N 54°45' E 012°47'1211.5
2015-Feb-21 20:33N 54°38' E 012°31'1211.7
2015-Feb-21 19:33N 54°30' E 012°16'1010.4
2015-Feb-21 18:33N 54°25' E 012°01'1211.5
2015-Feb-21 17:33N 54°26' E 011°41'1212.1
2015-Feb-21 16:33N 54°31' E 011°22'1512.0
2015-Feb-21 15:18N 54°34' E 010°57'911.7
2015-Feb-21 14:33N 54°34' E 010°42'1111.1
2015-Feb-21 13:33N 54°31' E 010°24'10 9.8
2015-Feb-21 12:33N 54°23' E 010°12'3 2.8
2015-Feb-21 11:33N 54°22' E 010°08'5 4.7
2015-Feb-21 10:33N 54°21' E 010°00'7 7.0
2015-Feb-21 09:33N 54°22' E 009°48'8 8.3
2015-Feb-21 08:33N 54°16' E 009°38'8 7.8
2015-Feb-21 07:33N 54°11' E 009°28'7 7.5
2015-Feb-21 06:33N 54°05' E 009°19'4 3.6
2015-Feb-21 05:33N 54°02' E 009°18'7 7.4
2015-Feb-21 04:33N 53°55' E 009°12'1 0.9
2015-Feb-21 03:31N 53°55' E 009°11'0 0.0
2015-Feb-21 02:31N 53°55' E 009°11'1 0.7
2015-Feb-21 01:33N 53°54' E 009°10'1 1.2
2015-Feb-21 00:34N 53°54' E 009°08'10 9.5
2015-Feb-20 23:33N 53°50' E 008°53'1313.1
2015-Feb-20 22:33N 53°58' E 008°35'1413.7
2015-Feb-20 21:33N 53°59' E 008°12'1211.6
2015-Feb-20 20:33N 53°53' E 007°55'9 9.4
2015-Feb-20 19:33N 53°48' E 008°08'1313.1
2015-Feb-20 18:33N 53°39' E 008°25'9 8.8
2015-Feb-20 17:31N 53°32' E 008°35'1 0.8
2015-Feb-20 16:32N 53°31' E 008°35'0 0.0
2015-Feb-20 15:32N 53°31' E 008°35'0 0.0
2015-Feb-20 14:32N 53°31' E 008°35'0 0.0
2015-Feb-20 13:32N 53°31' E 008°35'0 0.0
2015-Feb-20 12:32N 53°31' E 008°35'0 0.0
2015-Feb-20 11:32N 53°31' E 008°35'0 0.0
2015-Feb-20 10:32N 53°31' E 008°35'0 0.0
2015-Feb-20 09:32N 53°31' E 008°35'0 0.0
2015-Feb-20 08:32N 53°31' E 008°35'0 0.0
2015-Feb-20 07:32N 53°31' E 008°35'0 0.0
2015-Feb-20 06:32N 53°31' E 008°35'0 0.0
2015-Feb-20 05:32N 53°31' E 008°35'0 0.0
2015-Feb-20 04:32N 53°31' E 008°35'  

Dump ship's entire track history